createdAt,value
2023-04-24T00:01:38.008Z,6.60
2023-04-24T00:07:01.290Z,5.60
2023-04-24T00:12:23.559Z,6.87
2023-04-24T00:17:45.861Z,7.37
2023-04-24T00:23:08.217Z,8.17
2023-04-24T00:28:30.648Z,5.73
2023-04-24T00:33:52.855Z,6.77
2023-04-24T00:39:15.196Z,6.43
2023-04-24T00:44:37.759Z,8.30
2023-04-24T00:50:01.348Z,8.57
2023-04-24T00:55:23.430Z,6.13
2023-04-24T01:00:46.133Z,8.57
2023-04-24T01:06:10.470Z,9.17
2023-04-24T01:11:33.066Z,7.77
2023-04-24T01:16:56.024Z,8.83
2023-04-24T01:22:18.206Z,9.00
2023-04-24T01:27:40.654Z,6.97
2023-04-24T01:33:03.812Z,7.73
2023-04-24T01:38:26.309Z,7.90
2023-04-24T01:43:50.004Z,7.27
2023-04-24T01:49:12.578Z,10.07
2023-04-24T01:54:35.319Z,6.13
2023-04-24T01:59:58.405Z,7.03
2023-04-24T02:05:21.046Z,8.30
2023-04-24T02:10:43.440Z,6.30
2023-04-24T02:16:06.143Z,8.93
2023-04-24T02:21:29.003Z,7.20
2023-04-24T02:26:51.114Z,7.67
2023-04-24T02:32:13.729Z,6.43
2023-04-24T02:37:36.088Z,6.53
2023-04-24T02:42:58.667Z,6.60
2023-04-24T02:48:21.931Z,7.97
2023-04-24T02:53:44.768Z,6.40
2023-04-24T02:59:07.116Z,6.87
2023-04-24T03:04:29.875Z,5.47
2023-04-24T03:09:52.491Z,6.83
2023-04-24T03:15:14.812Z,6.83
2023-04-24T03:20:38.623Z,9.30
2023-04-24T03:26:01.021Z,6.80
2023-04-24T03:31:23.406Z,6.63
2023-04-24T03:36:48.604Z,11.60
2023-04-24T03:42:11.650Z,5.60
2023-04-24T03:47:44.998Z,6.10
2023-04-24T03:53:07.530Z,7.43
2023-04-24T03:58:34.095Z,7.80
2023-04-24T04:03:56.721Z,6.70
2023-04-24T04:09:21.473Z,5.07
2023-04-24T04:14:43.675Z,7.40
2023-04-24T04:20:11.179Z,6.00
2023-04-24T04:25:35.526Z,10.27
2023-04-24T04:30:58.849Z,7.27
2023-04-24T04:36:21.137Z,5.93
2023-04-24T04:41:49.964Z,6.33
2023-04-24T04:47:14.635Z,6.33
2023-04-24T04:52:38.164Z,6.77
2023-04-24T04:58:18.751Z,8.33
2023-04-24T05:03:43.961Z,9.70
2023-04-24T05:09:09.058Z,7.40
2023-04-24T05:14:39.504Z,7.07
2023-04-24T05:20:03.911Z,7.73
2023-04-24T05:25:26.722Z,8.27
2023-04-24T05:30:57.136Z,7.20
2023-04-24T05:36:21.067Z,6.63
2023-04-24T05:41:44.591Z,6.60
2023-04-24T05:47:07.127Z,6.87
2023-04-24T05:52:29.698Z,6.67
2023-04-24T05:57:52.053Z,5.97
2023-04-24T06:03:14.660Z,7.07
2023-04-24T06:08:37.415Z,4.83
2023-04-24T06:13:59.973Z,4.13
2023-04-24T06:19:34.294Z,5.90
2023-04-24T06:24:56.645Z,4.90
2023-04-24T06:30:22.769Z,3.67
2023-04-24T06:35:45.218Z,2.60
2023-04-24T06:41:07.421Z,5.30
2023-04-24T06:46:29.847Z,2.97
2023-04-24T06:51:52.470Z,2.40
2023-04-24T06:57:14.977Z,2.93
2023-04-24T07:02:38.887Z,1.87
2023-04-24T07:08:01.551Z,1.90
2023-04-24T07:13:24.698Z,4.07
2023-04-24T07:18:47.138Z,2.50
2023-04-24T07:24:13.907Z,2.33
2023-04-24T07:29:36.608Z,2.10
2023-04-24T07:34:58.929Z,4.90
2023-04-24T07:40:22.329Z,1.63
2023-04-24T07:45:45.234Z,1.33
2023-04-24T07:51:07.436Z,1.27
2023-04-24T07:56:32.454Z,1.50
2023-04-24T08:01:55.375Z,1.53
2023-04-24T08:07:18.062Z,2.67
2023-04-24T08:12:41.360Z,3.37
2023-04-24T08:18:03.700Z,1.07
2023-04-24T08:23:26.382Z,1.30
2023-04-24T08:28:48.633Z,1.63
2023-04-24T08:34:11.289Z,3.60
2023-04-24T08:39:33.924Z,0.90
2023-04-24T08:44:59.018Z,0.80
2023-04-24T08:50:22.749Z,0.50
2023-04-24T08:55:48.953Z,1.65
2023-04-24T09:01:12.186Z,1.75
2023-04-24T09:06:35.698Z,2.10
2023-04-24T09:11:58.898Z,1.95
2023-04-24T09:17:21.027Z,0.60
2023-04-24T09:22:44.637Z,0.55
2023-04-24T09:28:07.706Z,0.60
2023-04-24T09:33:30.820Z,0.98
2023-04-24T09:38:58.673Z,0.85
2023-04-24T09:44:22.218Z,0.75
2023-04-24T09:49:45.351Z,1.25
2023-04-24T09:55:20.167Z,0.60
2023-04-24T10:00:42.853Z,1.80
2023-04-24T10:06:11.846Z,0.90
2023-04-24T10:11:34.825Z,1.95
2023-04-24T10:16:59.590Z,0.85
2023-04-24T10:22:23.999Z,0.77
2023-04-24T10:27:47.901Z,3.17
2023-04-24T10:33:10.140Z,0.90
2023-04-24T10:38:32.795Z,1.43
2023-04-24T10:44:07.922Z,2.85
2023-04-24T10:49:32.008Z,0.88
2023-04-24T10:54:58.968Z,1.00
2023-04-24T11:00:23.149Z,1.08
2023-04-24T11:05:56.878Z,0.88
2023-04-24T11:11:21.939Z,0.98
2023-04-24T11:16:56.194Z,0.90
2023-04-24T11:22:20.861Z,1.60
2023-04-24T11:27:44.939Z,1.52
2023-04-24T11:33:07.505Z,0.63
2023-04-24T11:38:29.745Z,0.98
2023-04-24T11:43:53.699Z,1.20
2023-04-24T11:49:16.501Z,0.93
2023-04-24T11:54:38.765Z,1.52
2023-04-24T12:00:07.013Z,0.77
2023-04-24T12:05:35.889Z,0.88
2023-04-24T12:10:58.947Z,0.77
2023-04-24T12:16:21.416Z,1.20
2023-04-24T12:21:43.871Z,1.50
2023-04-24T12:27:06.120Z,1.33
2023-04-24T12:32:28.901Z,1.42
2023-04-24T12:37:51.528Z,1.08
2023-04-24T12:43:21.634Z,1.23
2023-04-24T12:48:44.102Z,2.13
2023-04-24T12:54:07.429Z,2.17
2023-04-24T12:59:29.625Z,1.70
2023-04-24T13:04:52.816Z,1.00
2023-04-24T13:10:15.425Z,0.70
2023-04-24T13:15:37.779Z,1.45
2023-04-24T13:21:00.616Z,2.80
2023-04-24T13:26:23.163Z,1.63
2023-04-24T13:31:45.858Z,0.75
2023-04-24T13:37:09.193Z,5.35
2023-04-24T13:42:31.862Z,3.83
2023-04-24T13:47:58.122Z,1.88
2023-04-24T13:53:20.346Z,3.13
2023-04-24T13:58:42.742Z,0.95
2023-04-24T14:04:05.545Z,1.73
2023-04-24T14:09:27.880Z,2.10
2023-04-24T14:14:50.594Z,0.90
2023-04-24T14:20:13.645Z,2.10
2023-04-24T14:25:36.159Z,0.60
2023-04-24T14:30:58.773Z,4.57
2023-04-24T14:36:20.969Z,0.70
2023-04-24T14:41:43.454Z,7.40
2023-04-24T14:47:06.757Z,17.40
2023-04-24T14:52:29.512Z,4.20
2023-04-24T14:57:51.848Z,0.90
2023-04-24T15:03:14.354Z,4.25
2023-04-24T15:08:36.920Z,0.73
2023-04-24T15:13:59.699Z,0.68
2023-04-24T15:19:21.874Z,0.80
2023-04-24T15:24:44.070Z,0.80
2023-04-24T15:30:07.088Z,5.70
2023-04-24T15:35:29.715Z,9.38
2023-04-24T15:40:52.114Z,1.23
2023-04-24T15:46:14.768Z,1.30
2023-04-24T15:51:37.954Z,1.48
2023-04-24T15:57:02.096Z,1.00
2023-04-24T16:02:24.589Z,1.45
2023-04-24T16:07:47.039Z,4.63
2023-04-24T16:13:09.606Z,2.70
2023-04-24T16:18:32.305Z,3.10
2023-04-24T16:23:54.664Z,6.18
2023-04-24T16:29:17.884Z,1.10
2023-04-24T16:34:40.177Z,2.05
2023-04-24T16:40:04.244Z,1.40
2023-04-24T16:45:26.495Z,2.65
2023-04-24T16:50:48.801Z,1.63
2023-04-24T16:56:11.481Z,2.45
2023-04-24T17:01:33.658Z,1.20
2023-04-24T17:06:56.183Z,2.15
2023-04-24T17:12:18.585Z,1.95
2023-04-24T17:17:44.264Z,2.35
2023-04-24T17:23:06.804Z,2.95
2023-04-24T17:28:31.151Z,1.60
2023-04-24T17:33:53.599Z,1.07
2023-04-24T17:39:16.806Z,1.80
2023-04-24T17:44:39.116Z,1.00
2023-04-24T17:50:01.609Z,0.80
2023-04-24T17:55:26.484Z,1.70
2023-04-24T18:00:48.902Z,1.10
2023-04-24T18:06:11.248Z,0.97
2023-04-24T18:11:34.908Z,1.70
2023-04-24T18:16:58.322Z,1.67
2023-04-24T18:22:20.800Z,1.70
2023-04-24T18:27:43.417Z,5.17
2023-04-24T18:33:06.025Z,3.20
2023-04-24T18:38:28.253Z,1.90
2023-04-24T18:43:52.030Z,2.37
2023-04-24T18:49:14.134Z,7.67
2023-04-24T18:54:36.905Z,1.50
2023-04-24T18:59:59.661Z,2.93
2023-04-24T19:05:21.783Z,2.30
2023-04-24T19:10:46.355Z,1.17
2023-04-24T19:16:08.723Z,0.70
2023-04-24T19:21:31.654Z,1.13
2023-04-24T19:26:54.136Z,0.60
2023-04-24T19:32:16.883Z,1.27
2023-04-24T19:37:39.807Z,0.87
2023-04-24T19:43:02.149Z,1.73
2023-04-24T19:48:24.364Z,0.73
2023-04-24T19:53:46.473Z,0.97
2023-04-24T19:59:08.917Z,1.13
2023-04-24T20:04:31.570Z,0.60
2023-04-24T20:09:54.209Z,3.13
2023-04-24T20:15:16.755Z,1.00
2023-04-24T20:20:41.690Z,1.00
2023-04-24T20:26:05.066Z,3.03
2023-04-24T20:31:27.955Z,1.50
2023-04-24T20:36:50.605Z,8.60
2023-04-24T20:42:13.863Z,1.20
2023-04-24T20:47:36.975Z,3.23
2023-04-24T20:52:59.245Z,1.50
2023-04-24T20:58:23.056Z,2.53
2023-04-24T21:03:45.608Z,1.83
2023-04-24T21:09:08.804Z,2.10
2023-04-24T21:14:31.232Z,2.27
2023-04-24T21:19:53.576Z,2.20
2023-04-24T21:25:16.225Z,3.37
2023-04-24T21:30:39.036Z,2.00
2023-04-24T21:36:01.212Z,3.20
2023-04-24T21:41:25.804Z,2.07
2023-04-24T21:46:48.092Z,2.93
2023-04-24T21:52:10.291Z,2.90
2023-04-24T21:57:32.511Z,3.97
2023-04-24T22:02:55.126Z,2.23
2023-04-24T22:08:17.466Z,2.93
2023-04-24T22:13:39.997Z,5.00
2023-04-24T22:19:02.848Z,2.57
2023-04-24T22:24:25.319Z,4.20
2023-04-24T22:29:47.394Z,2.57
2023-04-24T22:35:09.948Z,4.23
2023-04-24T22:40:35.007Z,4.57
2023-04-24T22:45:57.269Z,4.10
2023-04-24T22:51:19.633Z,3.90
2023-04-24T22:56:41.893Z,4.07
2023-04-24T23:02:05.371Z,2.87
2023-04-24T23:07:29.084Z,2.63
2023-04-24T23:12:51.524Z,4.10
2023-04-24T23:18:13.976Z,6.70
2023-04-24T23:23:36.429Z,5.33
2023-04-24T23:28:58.669Z,7.20
2023-04-24T23:34:21.243Z,4.80
2023-04-24T23:39:43.396Z,8.17
2023-04-24T23:45:06.425Z,4.40
2023-04-24T23:50:28.612Z,4.77
2023-04-24T23:55:50.958Z,6.97
